sensor_id;sensor_type;location;lat;lon;timestamp;temperature;humidity
36586;DHT22;22591;48.314;11.562;2023-08-07T00:00:57;12.80;99.90
36586;DHT22;22591;48.314;11.562;2023-08-07T00:03:23;12.80;99.90
36586;DHT22;22591;48.314;11.562;2023-08-07T00:05:48;12.70;99.90
36586;DHT22;22591;48.314;11.562;2023-08-07T00:08:14;12.70;99.90
36586;DHT22;22591;48.314;11.562;2023-08-07T00:10:40;12.70;99.90
36586;DHT22;22591;48.314;11.562;2023-08-07T00:13:05;12.70;99.90
36586;DHT22;22591;48.314;11.562;2023-08-07T00:15:31;12.60;99.90
36586;DHT22;22591;48.314;11.562;2023-08-07T00:17:58;12.50;99.90
36586;DHT22;22591;48.314;11.562;2023-08-07T00:20:24;12.40;99.90
36586;DHT22;22591;48.314;11.562;2023-08-07T00:22:50;12.40;99.90
36586;DHT22;22591;48.314;11.562;2023-08-07T00:25:15;12.30;99.90
36586;DHT22;22591;48.314;11.562;2023-08-07T00:27:41;12.20;99.90
36586;DHT22;22591;48.314;11.562;2023-08-07T00:30:07;12.20;99.90
36586;DHT22;22591;48.314;11.562;2023-08-07T00:32:32;12.10;99.90
36586;DHT22;22591;48.314;11.562;2023-08-07T00:34:58;11.90;99.90
36586;DHT22;22591;48.314;11.562;2023-08-07T00:37:23;11.80;99.90
36586;DHT22;22591;48.314;11.562;2023-08-07T00:39:49;11.80;99.90
36586;DHT22;22591;48.314;11.562;2023-08-07T00:42:14;11.70;99.90
36586;DHT22;22591;48.314;11.562;2023-08-07T00:44:40;11.60;99.90
36586;DHT22;22591;48.314;11.562;2023-08-07T00:47:06;11.60;99.90
36586;DHT22;22591;48.314;11.562;2023-08-07T00:49:32;11.60;99.90
36586;DHT22;22591;48.314;11.562;2023-08-07T00:51:58;11.50;99.90
36586;DHT22;22591;48.314;11.562;2023-08-07T00:54:25;11.50;99.90
36586;DHT22;22591;48.314;11.562;2023-08-07T00:56:51;11.40;99.90
36586;DHT22;22591;48.314;11.562;2023-08-07T00:59:18;11.50;99.90
36586;DHT22;22591;48.314;11.562;2023-08-07T01:01:44;11.40;99.90
36586;DHT22;22591;48.314;11.562;2023-08-07T01:04:10;11.30;99.90
36586;DHT22;22591;48.314;11.562;2023-08-07T01:06:36;11.30;99.90
36586;DHT22;22591;48.314;11.562;2023-08-07T01:09:01;11.20;99.90
36586;DHT22;22591;48.314;11.562;2023-08-07T01:11:48;11.20;99.90
36586;DHT22;22591;48.314;11.562;2023-08-07T01:17:19;11.20;99.90
36586;DHT22;22591;48.314;11.562;2023-08-07T01:19:46;11.20;99.90
36586;DHT22;22591;48.314;11.562;2023-08-07T01:22:17;11.10;99.90
36586;DHT22;22591;48.314;11.562;2023-08-07T01:24:44;11.10;99.90
36586;DHT22;22591;48.314;11.562;2023-08-07T01:32:43;11.00;99.90
36586;DHT22;22591;48.314;11.562;2023-08-07T01:35:07;11.00;99.90
36586;DHT22;22591;48.314;11.562;2023-08-07T01:37:36;11.10;99.90
36586;DHT22;22591;48.314;11.562;2023-08-07T01:40:02;11.00;99.90
36586;DHT22;22591;48.314;11.562;2023-08-07T01:42:29;11.00;99.90
36586;DHT22;22591;48.314;11.562;2023-08-07T01:44:55;11.10;99.90
36586;DHT22;22591;48.314;11.562;2023-08-07T01:47:20;11.10;99.90
36586;DHT22;22591;48.314;11.562;2023-08-07T01:49:46;11.10;99.90
36586;DHT22;22591;48.314;11.562;2023-08-07T01:52:11;11.10;99.90
36586;DHT22;22591;48.314;11.562;2023-08-07T01:54:37;11.10;99.90
36586;DHT22;22591;48.314;11.562;2023-08-07T01:57:03;11.00;99.90
36586;DHT22;22591;48.314;11.562;2023-08-07T01:59:29;11.00;99.90
36586;DHT22;22591;48.314;11.562;2023-08-07T02:01:54;11.00;99.90
36586;DHT22;22591;48.314;11.562;2023-08-07T02:04:22;11.00;99.90
36586;DHT22;22591;48.314;11.562;2023-08-07T02:06:47;11.00;99.90
36586;DHT22;22591;48.314;11.562;2023-08-07T02:09:13;11.00;99.90
36586;DHT22;22591;48.314;11.562;2023-08-07T02:11:38;10.90;99.90
36586;DHT22;22591;48.314;11.562;2023-08-07T02:14:04;11.00;99.90
36586;DHT22;22591;48.314;11.562;2023-08-07T02:16:29;10.90;99.90
36586;DHT22;22591;48.314;11.562;2023-08-07T02:18:55;10.90;99.90
36586;DHT22;22591;48.314;11.562;2023-08-07T02:21:20;10.90;99.90
36586;DHT22;22591;48.314;11.562;2023-08-07T02:23:46;10.90;99.90
36586;DHT22;22591;48.314;11.562;2023-08-07T02:26:11;10.90;99.90
36586;DHT22;22591;48.314;11.562;2023-08-07T02:28:37;10.90;99.90
36586;DHT22;22591;48.314;11.562;2023-08-07T02:31:02;10.90;99.90
36586;DHT22;22591;48.314;11.562;2023-08-07T02:33:28;10.90;99.90
36586;DHT22;22591;48.314;11.562;2023-08-07T02:35:56;10.90;99.90
36586;DHT22;22591;48.314;11.562;2023-08-07T02:38:21;10.90;99.90
36586;DHT22;22591;48.314;11.562;2023-08-07T02:40:47;10.80;99.90
36586;DHT22;22591;48.314;11.562;2023-08-07T02:43:13;10.80;99.90
36586;DHT22;22591;48.314;11.562;2023-08-07T02:45:38;10.80;99.90
36586;DHT22;22591;48.314;11.562;2023-08-07T02:48:04;10.80;99.90
36586;DHT22;22591;48.314;11.562;2023-08-07T02:50:30;10.80;99.90
36586;DHT22;22591;48.314;11.562;2023-08-07T02:52:58;10.80;99.90
36586;DHT22;22591;48.314;11.562;2023-08-07T02:55:23;10.80;99.90
36586;DHT22;22591;48.314;11.562;2023-08-07T02:57:49;10.70;99.90
36586;DHT22;22591;48.314;11.562;2023-08-07T03:00:15;10.80;99.90
36586;DHT22;22591;48.314;11.562;2023-08-07T03:02:40;10.80;99.90
36586;DHT22;22591;48.314;11.562;2023-08-07T03:05:06;10.70;99.90
36586;DHT22;22591;48.314;11.562;2023-08-07T03:07:32;10.70;99.90
36586;DHT22;22591;48.314;11.562;2023-08-07T03:09:58;10.80;99.90
36586;DHT22;22591;48.314;11.562;2023-08-07T03:12:24;10.80;99.90
36586;DHT22;22591;48.314;11.562;2023-08-07T03:14:49;10.80;99.90
36586;DHT22;22591;48.314;11.562;2023-08-07T03:17:15;10.80;99.90
36586;DHT22;22591;48.314;11.562;2023-08-07T03:19:42;10.80;99.90
36586;DHT22;22591;48.314;11.562;2023-08-07T03:22:08;10.80;99.90
36586;DHT22;22591;48.314;11.562;2023-08-07T03:24:34;10.80;99.90
36586;DHT22;22591;48.314;11.562;2023-08-07T03:27:00;10.80;99.90
36586;DHT22;22591;48.314;11.562;2023-08-07T03:29:25;10.90;99.90
36586;DHT22;22591;48.314;11.562;2023-08-07T03:31:51;10.90;99.90
36586;DHT22;22591;48.314;11.562;2023-08-07T03:34:16;10.90;99.90
36586;DHT22;22591;48.314;11.562;2023-08-07T03:36:42;11.00;99.90
36586;DHT22;22591;48.314;11.562;2023-08-07T03:39:07;10.90;99.90
36586;DHT22;22591;48.314;11.562;2023-08-07T03:41:33;11.00;99.90
36586;DHT22;22591;48.314;11.562;2023-08-07T03:43:59;11.00;99.90
36586;DHT22;22591;48.314;11.562;2023-08-07T03:46:25;11.10;99.90
36586;DHT22;22591;48.314;11.562;2023-08-07T03:48:50;11.00;99.90
36586;DHT22;22591;48.314;11.562;2023-08-07T03:51:16;11.10;99.90
36586;DHT22;22591;48.314;11.562;2023-08-07T03:53:42;11.20;99.90
36586;DHT22;22591;48.314;11.562;2023-08-07T03:56:08;11.20;99.90
36586;DHT22;22591;48.314;11.562;2023-08-07T03:58:33;11.20;99.90
36586;DHT22;22591;48.314;11.562;2023-08-07T04:00:59;11.20;99.90
36586;DHT22;22591;48.314;11.562;2023-08-07T04:03:24;11.30;99.90
36586;DHT22;22591;48.314;11.562;2023-08-07T04:05:54;11.30;99.90
36586;DHT22;22591;48.314;11.562;2023-08-07T04:08:21;11.30;99.90
36586;DHT22;22591;48.314;11.562;2023-08-07T04:11:00;11.30;99.90
36586;DHT22;22591;48.314;11.562;2023-08-07T04:13:26;11.50;99.90
36586;DHT22;22591;48.314;11.562;2023-08-07T04:15:52;11.40;99.90
36586;DHT22;22591;48.314;11.562;2023-08-07T04:18:18;11.50;99.90
36586;DHT22;22591;48.314;11.562;2023-08-07T04:20:52;11.50;99.90
36586;DHT22;22591;48.314;11.562;2023-08-07T04:23:17;11.50;99.90
36586;DHT22;22591;48.314;11.562;2023-08-07T04:25:44;11.50;99.90
36586;DHT22;22591;48.314;11.562;2023-08-07T04:28:10;11.50;99.90
36586;DHT22;22591;48.314;11.562;2023-08-07T04:30:36;11.60;99.90
36586;DHT22;22591;48.314;11.562;2023-08-07T04:33:01;11.60;99.90
36586;DHT22;22591;48.314;11.562;2023-08-07T04:35:28;11.60;99.90
36586;DHT22;22591;48.314;11.562;2023-08-07T04:37:53;11.60;99.90
36586;DHT22;22591;48.314;11.562;2023-08-07T04:40:19;11.60;99.90
36586;DHT22;22591;48.314;11.562;2023-08-07T04:42:45;11.70;99.90
36586;DHT22;22591;48.314;11.562;2023-08-07T04:45:10;11.70;99.90
36586;DHT22;22591;48.314;11.562;2023-08-07T04:47:36;11.70;99.90
36586;DHT22;22591;48.314;11.562;2023-08-07T04:50:01;11.60;99.90
36586;DHT22;22591;48.314;11.562;2023-08-07T04:52:28;11.60;99.90
36586;DHT22;22591;48.314;11.562;2023-08-07T04:54:53;11.70;99.90
36586;DHT22;22591;48.314;11.562;2023-08-07T04:57:19;11.70;99.90
36586;DHT22;22591;48.314;11.562;2023-08-07T04:59:44;11.80;99.90
36586;DHT22;22591;48.314;11.562;2023-08-07T05:02:10;11.80;99.90
36586;DHT22;22591;48.314;11.562;2023-08-07T05:04:36;11.80;99.90
36586;DHT22;22591;48.314;11.562;2023-08-07T05:07:01;11.80;99.90
36586;DHT22;22591;48.314;11.562;2023-08-07T05:09:27;11.90;99.90
36586;DHT22;22591;48.314;11.562;2023-08-07T05:11:52;11.90;99.90
36586;DHT22;22591;48.314;11.562;2023-08-07T05:14:18;11.90;99.90
36586;DHT22;22591;48.314;11.562;2023-08-07T05:16:44;11.90;99.90
36586;DHT22;22591;48.314;11.562;2023-08-07T05:19:09;11.90;99.90
36586;DHT22;22591;48.314;11.562;2023-08-07T05:21:36;11.90;99.90
36586;DHT22;22591;48.314;11.562;2023-08-07T05:24:01;12.00;99.90
36586;DHT22;22591;48.314;11.562;2023-08-07T05:26:27;12.00;99.90
36586;DHT22;22591;48.314;11.562;2023-08-07T05:28:55;12.10;99.90
36586;DHT22;22591;48.314;11.562;2023-08-07T05:31:23;12.00;99.90
36586;DHT22;22591;48.314;11.562;2023-08-07T05:33:48;12.10;99.90
36586;DHT22;22591;48.314;11.562;2023-08-07T05:36:14;12.10;99.90
36586;DHT22;22591;48.314;11.562;2023-08-07T05:38:40;12.10;99.90
36586;DHT22;22591;48.314;11.562;2023-08-07T05:41:05;12.10;99.90
36586;DHT22;22591;48.314;11.562;2023-08-07T05:43:31;12.10;99.90
36586;DHT22;22591;48.314;11.562;2023-08-07T05:45:57;12.10;99.90
36586;DHT22;22591;48.314;11.562;2023-08-07T05:48:23;12.20;99.90
36586;DHT22;22591;48.314;11.562;2023-08-07T05:50:48;12.20;99.90
36586;DHT22;22591;48.314;11.562;2023-08-07T05:53:16;12.30;99.90
36586;DHT22;22591;48.314;11.562;2023-08-07T05:55:42;12.30;99.90
36586;DHT22;22591;48.314;11.562;2023-08-07T05:58:07;12.40;99.90
36586;DHT22;22591;48.314;11.562;2023-08-07T06:00:33;12.40;99.90
36586;DHT22;22591;48.314;11.562;2023-08-07T06:02:59;12.50;99.90
36586;DHT22;22591;48.314;11.562;2023-08-07T06:05:24;12.50;99.90
36586;DHT22;22591;48.314;11.562;2023-08-07T06:07:50;12.60;99.90
36586;DHT22;22591;48.314;11.562;2023-08-07T06:10:16;12.60;99.90
36586;DHT22;22591;48.314;11.562;2023-08-07T06:12:41;12.60;99.90
36586;DHT22;22591;48.314;11.562;2023-08-07T06:15:07;12.70;99.90
36586;DHT22;22591;48.314;11.562;2023-08-07T06:17:34;12.70;99.90
36586;DHT22;22591;48.314;11.562;2023-08-07T06:20:00;12.70;99.90
36586;DHT22;22591;48.314;11.562;2023-08-07T06:22:25;12.90;99.90
36586;DHT22;22591;48.314;11.562;2023-08-07T06:24:51;12.90;99.90
36586;DHT22;22591;48.314;11.562;2023-08-07T06:27:17;12.90;99.90
36586;DHT22;22591;48.314;11.562;2023-08-07T06:29:44;13.00;99.90
36586;DHT22;22591;48.314;11.562;2023-08-07T06:32:09;13.20;99.90
36586;DHT22;22591;48.314;11.562;2023-08-07T06:34:35;13.20;99.90
36586;DHT22;22591;48.314;11.562;2023-08-07T06:37:04;13.30;99.90
36586;DHT22;22591;48.314;11.562;2023-08-07T06:39:30;13.40;99.90
36586;DHT22;22591;48.314;11.562;2023-08-07T06:41:56;13.50;99.90
36586;DHT22;22591;48.314;11.562;2023-08-07T06:44:22;13.50;99.90
36586;DHT22;22591;48.314;11.562;2023-08-07T06:46:47;13.60;99.90
36586;DHT22;22591;48.314;11.562;2023-08-07T06:49:13;13.70;99.90
36586;DHT22;22591;48.314;11.562;2023-08-07T06:51:39;13.80;99.90
36586;DHT22;22591;48.314;11.562;2023-08-07T06:54:04;14.00;99.90
36586;DHT22;22591;48.314;11.562;2023-08-07T06:56:30;14.00;99.90
36586;DHT22;22591;48.314;11.562;2023-08-07T06:58:55;14.10;99.90
36586;DHT22;22591;48.314;11.562;2023-08-07T07:01:21;14.10;99.90
36586;DHT22;22591;48.314;11.562;2023-08-07T07:03:47;14.20;99.90
36586;DHT22;22591;48.314;11.562;2023-08-07T07:06:18;14.40;99.90
36586;DHT22;22591;48.314;11.562;2023-08-07T07:08:43;14.60;99.90
36586;DHT22;22591;48.314;11.562;2023-08-07T07:11:09;14.60;99.90
36586;DHT22;22591;48.314;11.562;2023-08-07T07:13:34;14.80;99.90
36586;DHT22;22591;48.314;11.562;2023-08-07T07:16:00;14.80;99.90
36586;DHT22;22591;48.314;11.562;2023-08-07T07:18:26;14.80;99.90
36586;DHT22;22591;48.314;11.562;2023-08-07T07:21:01;14.80;99.90
36586;DHT22;22591;48.314;11.562;2023-08-07T07:23:27;14.80;99.90
36586;DHT22;22591;48.314;11.562;2023-08-07T07:25:52;14.90;99.90
36586;DHT22;22591;48.314;11.562;2023-08-07T07:28:18;15.10;99.90
36586;DHT22;22591;48.314;11.562;2023-08-07T07:30:43;15.20;99.90
36586;DHT22;22591;48.314;11.562;2023-08-07T07:33:09;15.20;99.90
36586;DHT22;22591;48.314;11.562;2023-08-07T07:35:38;15.40;99.90
36586;DHT22;22591;48.314;11.562;2023-08-07T07:38:06;15.40;99.90
36586;DHT22;22591;48.314;11.562;2023-08-07T07:40:31;15.50;99.90
36586;DHT22;22591;48.314;11.562;2023-08-07T07:42:57;15.50;99.90
36586;DHT22;22591;48.314;11.562;2023-08-07T07:45:23;15.60;99.90
36586;DHT22;22591;48.314;11.562;2023-08-07T07:47:48;15.80;99.90
36586;DHT22;22591;48.314;11.562;2023-08-07T07:50:14;15.80;99.90
36586;DHT22;22591;48.314;11.562;2023-08-07T07:52:40;15.90;99.90
36586;DHT22;22591;48.314;11.562;2023-08-07T07:55:06;15.90;99.90
36586;DHT22;22591;48.314;11.562;2023-08-07T07:57:31;16.00;99.90
36586;DHT22;22591;48.314;11.562;2023-08-07T07:59:58;16.10;99.90
36586;DHT22;22591;48.314;11.562;2023-08-07T08:02:24;16.30;99.40
36586;DHT22;22591;48.314;11.562;2023-08-07T08:04:51;16.50;98.70
36586;DHT22;22591;48.314;11.562;2023-08-07T08:07:16;16.70;98.70
36586;DHT22;22591;48.314;11.562;2023-08-07T08:09:42;16.90;98.40
36586;DHT22;22591;48.314;11.562;2023-08-07T08:12:08;16.70;97.30
36586;DHT22;22591;48.314;11.562;2023-08-07T08:14:34;16.80;97.10
36586;DHT22;22591;48.314;11.562;2023-08-07T08:16:59;16.80;96.60
36586;DHT22;22591;48.314;11.562;2023-08-07T08:19:25;16.90;95.80
36586;DHT22;22591;48.314;11.562;2023-08-07T08:21:51;17.00;96.20
36586;DHT22;22591;48.314;11.562;2023-08-07T08:24:16;17.00;96.50
36586;DHT22;22591;48.314;11.562;2023-08-07T08:26:42;17.30;96.00
36586;DHT22;22591;48.314;11.562;2023-08-07T08:29:07;17.40;95.40
36586;DHT22;22591;48.314;11.562;2023-08-07T08:31:34;17.30;95.40
36586;DHT22;22591;48.314;11.562;2023-08-07T08:33:59;17.20;94.90
36586;DHT22;22591;48.314;11.562;2023-08-07T08:36:25;17.10;94.00
36586;DHT22;22591;48.314;11.562;2023-08-07T08:38:51;17.00;94.40
36586;DHT22;22591;48.314;11.562;2023-08-07T08:41:18;17.10;94.80
36586;DHT22;22591;48.314;11.562;2023-08-07T08:43:45;17.30;94.60
36586;DHT22;22591;48.314;11.562;2023-08-07T08:46:14;17.30;94.60
36586;DHT22;22591;48.314;11.562;2023-08-07T08:48:40;17.40;94.80
36586;DHT22;22591;48.314;11.562;2023-08-07T08:51:09;17.50;94.50
36586;DHT22;22591;48.314;11.562;2023-08-07T08:53:37;17.50;94.20
36586;DHT22;22591;48.314;11.562;2023-08-07T08:56:03;17.70;93.70
36586;DHT22;22591;48.314;11.562;2023-08-07T08:58:29;17.60;93.00
36586;DHT22;22591;48.314;11.562;2023-08-07T09:00:56;17.50;93.40
36586;DHT22;22591;48.314;11.562;2023-08-07T09:03:21;17.50;93.30
36586;DHT22;22591;48.314;11.562;2023-08-07T09:05:47;17.50;92.90
36586;DHT22;22591;48.314;11.562;2023-08-07T09:08:15;17.40;93.10
36586;DHT22;22591;48.314;11.562;2023-08-07T09:10:41;17.60;93.00
36586;DHT22;22591;48.314;11.562;2023-08-07T09:13:11;17.90;92.60
36586;DHT22;22591;48.314;11.562;2023-08-07T09:15:39;17.80;91.90
36586;DHT22;22591;48.314;11.562;2023-08-07T09:18:06;17.90;91.50
36586;DHT22;22591;48.314;11.562;2023-08-07T09:20:37;17.90;91.60
36586;DHT22;22591;48.314;11.562;2023-08-07T09:23:05;18.10;91.90
36586;DHT22;22591;48.314;11.562;2023-08-07T09:25:32;18.60;91.80
36586;DHT22;22591;48.314;11.562;2023-08-07T09:28:01;18.90;91.60
36586;DHT22;22591;48.314;11.562;2023-08-07T09:30:28;19.20;91.40
36586;DHT22;22591;48.314;11.562;2023-08-07T09:32:56;19.40;91.20
36586;DHT22;22591;48.314;11.562;2023-08-07T09:35:21;19.20;91.00
36586;DHT22;22591;48.314;11.562;2023-08-07T09:37:48;19.00;90.90
36586;DHT22;22591;48.314;11.562;2023-08-07T09:40:14;18.80;91.10
36586;DHT22;22591;48.314;11.562;2023-08-07T09:42:41;18.90;90.20
36586;DHT22;22591;48.314;11.562;2023-08-07T09:45:27;18.80;90.80
36586;DHT22;22591;48.314;11.562;2023-08-07T09:48:01;19.10;90.20
36586;DHT22;22591;48.314;11.562;2023-08-07T09:50:27;18.90;88.10
36586;DHT22;22591;48.314;11.562;2023-08-07T09:52:54;18.90;88.60
36586;DHT22;22591;48.314;11.562;2023-08-07T09:55:24;19.00;86.90
36586;DHT22;22591;48.314;11.562;2023-08-07T09:57:50;19.10;86.70
36586;DHT22;22591;48.314;11.562;2023-08-07T10:00:17;19.00;86.90
36586;DHT22;22591;48.314;11.562;2023-08-07T10:02:46;19.20;87.20
36586;DHT22;22591;48.314;11.562;2023-08-07T10:05:13;19.30;87.10
36586;DHT22;22591;48.314;11.562;2023-08-07T10:07:39;19.60;87.00
36586;DHT22;22591;48.314;11.562;2023-08-07T10:10:05;20.00;87.30
36586;DHT22;22591;48.314;11.562;2023-08-07T10:12:32;20.40;83.40
36586;DHT22;22591;48.314;11.562;2023-08-07T10:14:59;20.20;80.90
36586;DHT22;22591;48.314;11.562;2023-08-07T10:17:25;20.40;80.60
36586;DHT22;22591;48.314;11.562;2023-08-07T10:19:52;20.20;82.30
36586;DHT22;22591;48.314;11.562;2023-08-07T10:22:24;20.40;81.60
36586;DHT22;22591;48.314;11.562;2023-08-07T10:24:53;20.60;82.10
36586;DHT22;22591;48.314;11.562;2023-08-07T10:27:20;20.50;81.40
36586;DHT22;22591;48.314;11.562;2023-08-07T10:29:48;20.10;81.30
36586;DHT22;22591;48.314;11.562;2023-08-07T10:32:16;19.90;80.30
36586;DHT22;22591;48.314;11.562;2023-08-07T10:34:47;19.60;79.50
36586;DHT22;22591;48.314;11.562;2023-08-07T10:37:40;19.40;81.20
36586;DHT22;22591;48.314;11.562;2023-08-07T10:40:07;19.60;80.80
36586;DHT22;22591;48.314;11.562;2023-08-07T10:45:21;19.90;81.40
36586;DHT22;22591;48.314;11.562;2023-08-07T10:50:31;19.90;80.30
36586;DHT22;22591;48.314;11.562;2023-08-07T10:53:00;20.20;79.60
36586;DHT22;22591;48.314;11.562;2023-08-07T10:55:26;20.10;79.00
36586;DHT22;22591;48.314;11.562;2023-08-07T10:57:53;20.00;78.20
36586;DHT22;22591;48.314;11.562;2023-08-07T11:00:26;20.00;79.00
36586;DHT22;22591;48.314;11.562;2023-08-07T11:02:52;20.40;78.60
36586;DHT22;22591;48.314;11.562;2023-08-07T11:05:18;20.50;77.30
36586;DHT22;22591;48.314;11.562;2023-08-07T11:07:45;20.60;78.00
36586;DHT22;22591;48.314;11.562;2023-08-07T11:10:13;20.60;78.10
36586;DHT22;22591;48.314;11.562;2023-08-07T11:12:40;20.80;78.20
36586;DHT22;22591;48.314;11.562;2023-08-07T11:15:06;20.40;78.90
36586;DHT22;22591;48.314;11.562;2023-08-07T11:17:32;19.90;78.10
36586;DHT22;22591;48.314;11.562;2023-08-07T11:19:58;19.30;79.70
36586;DHT22;22591;48.314;11.562;2023-08-07T11:22:24;19.00;81.20
36586;DHT22;22591;48.314;11.562;2023-08-07T11:24:51;18.60;83.10
36586;DHT22;22591;48.314;11.562;2023-08-07T11:27:16;18.40;83.60
36586;DHT22;22591;48.314;11.562;2023-08-07T11:29:47;18.20;84.40
36586;DHT22;22591;48.314;11.562;2023-08-07T11:32:14;18.70;84.20
36586;DHT22;22591;48.314;11.562;2023-08-07T11:34:39;19.30;82.90
36586;DHT22;22591;48.314;11.562;2023-08-07T11:37:05;19.70;80.90
36586;DHT22;22591;48.314;11.562;2023-08-07T11:39:31;20.00;79.30
36586;DHT22;22591;48.314;11.562;2023-08-07T11:41:56;20.30;79.30
36586;DHT22;22591;48.314;11.562;2023-08-07T11:44:23;20.20;78.50
36586;DHT22;22591;48.314;11.562;2023-08-07T11:46:50;20.40;79.60
36586;DHT22;22591;48.314;11.562;2023-08-07T11:49:16;20.60;78.60
36586;DHT22;22591;48.314;11.562;2023-08-07T11:51:42;21.00;77.20
36586;DHT22;22591;48.314;11.562;2023-08-07T11:54:14;21.30;75.50
36586;DHT22;22591;48.314;11.562;2023-08-07T11:56:41;21.60;74.80
36586;DHT22;22591;48.314;11.562;2023-08-07T11:59:08;21.30;74.20
36586;DHT22;22591;48.314;11.562;2023-08-07T12:01:37;20.70;76.80
36586;DHT22;22591;48.314;11.562;2023-08-07T12:06:33;19.90;75.00
36586;DHT22;22591;48.314;11.562;2023-08-07T12:09:01;19.70;75.60
36586;DHT22;22591;48.314;11.562;2023-08-07T12:11:29;19.70;75.80
36586;DHT22;22591;48.314;11.562;2023-08-07T12:13:55;19.80;76.20
36586;DHT22;22591;48.314;11.562;2023-08-07T12:16:21;19.90;75.20
36586;DHT22;22591;48.314;11.562;2023-08-07T12:18:48;19.80;75.00
36586;DHT22;22591;48.314;11.562;2023-08-07T12:21:16;19.90;75.60
36586;DHT22;22591;48.314;11.562;2023-08-07T12:23:44;20.30;76.00
36586;DHT22;22591;48.314;11.562;2023-08-07T12:26:09;20.50;75.20
36586;DHT22;22591;48.314;11.562;2023-08-07T12:28:35;20.80;74.00
36586;DHT22;22591;48.314;11.562;2023-08-07T12:31:01;21.10;72.80
36586;DHT22;22591;48.314;11.562;2023-08-07T12:33:28;21.10;72.80
36586;DHT22;22591;48.314;11.562;2023-08-07T12:35:54;21.30;72.90
36586;DHT22;22591;48.314;11.562;2023-08-07T12:38:20;21.10;72.50
36586;DHT22;22591;48.314;11.562;2023-08-07T12:40:45;21.10;73.50
36586;DHT22;22591;48.314;11.562;2023-08-07T12:43:11;21.30;74.00
36586;DHT22;22591;48.314;11.562;2023-08-07T12:45:36;21.30;73.30
36586;DHT22;22591;48.314;11.562;2023-08-07T12:48:02;21.10;72.70
36586;DHT22;22591;48.314;11.562;2023-08-07T12:50:28;21.10;71.60
36586;DHT22;22591;48.314;11.562;2023-08-07T12:52:54;21.10;71.30
36586;DHT22;22591;48.314;11.562;2023-08-07T12:55:20;21.20;71.20
36586;DHT22;22591;48.314;11.562;2023-08-07T12:57:46;21.00;70.30
36586;DHT22;22591;48.314;11.562;2023-08-07T13:00:12;20.90;71.90
36586;DHT22;22591;48.314;11.562;2023-08-07T13:02:44;21.00;69.90
36586;DHT22;22591;48.314;11.562;2023-08-07T13:05:10;20.60;70.10
36586;DHT22;22591;48.314;11.562;2023-08-07T13:07:38;20.30;71.80
36586;DHT22;22591;48.314;11.562;2023-08-07T13:10:08;20.00;72.90
36586;DHT22;22591;48.314;11.562;2023-08-07T13:12:36;20.00;73.30
36586;DHT22;22591;48.314;11.562;2023-08-07T13:15:06;20.00;72.90
36586;DHT22;22591;48.314;11.562;2023-08-07T13:17:33;20.20;73.30
36586;DHT22;22591;48.314;11.562;2023-08-07T13:20:00;20.50;73.30
36586;DHT22;22591;48.314;11.562;2023-08-07T13:22:26;20.80;70.90
36586;DHT22;22591;48.314;11.562;2023-08-07T13:24:52;20.70;71.10
36586;DHT22;22591;48.314;11.562;2023-08-07T13:27:18;20.50;70.10
36586;DHT22;22591;48.314;11.562;2023-08-07T13:29:44;20.10;72.70
36586;DHT22;22591;48.314;11.562;2023-08-07T13:32:09;20.00;71.60
36586;DHT22;22591;48.314;11.562;2023-08-07T13:34:36;20.20;72.10
36586;DHT22;22591;48.314;11.562;2023-08-07T13:37:02;20.40;71.20
36586;DHT22;22591;48.314;11.562;2023-08-07T13:39:28;20.30;70.50
36586;DHT22;22591;48.314;11.562;2023-08-07T13:41:54;20.20;68.70
36586;DHT22;22591;48.314;11.562;2023-08-07T13:44:19;20.20;68.40
36586;DHT22;22591;48.314;11.562;2023-08-07T13:46:46;20.30;68.70
36586;DHT22;22591;48.314;11.562;2023-08-07T13:49:13;20.40;67.60
36586;DHT22;22591;48.314;11.562;2023-08-07T13:51:38;20.30;66.80
36586;DHT22;22591;48.314;11.562;2023-08-07T13:54:04;20.50;66.30
36586;DHT22;22591;48.314;11.562;2023-08-07T13:56:29;20.50;66.00
36586;DHT22;22591;48.314;11.562;2023-08-07T13:58:55;20.50;65.30
36586;DHT22;22591;48.314;11.562;2023-08-07T14:01:21;20.50;66.20
36586;DHT22;22591;48.314;11.562;2023-08-07T14:03:46;20.80;66.80
36586;DHT22;22591;48.314;11.562;2023-08-07T14:06:12;20.70;66.50
36586;DHT22;22591;48.314;11.562;2023-08-07T14:08:37;20.60;67.30
36586;DHT22;22591;48.314;11.562;2023-08-07T14:11:03;20.70;67.70
36586;DHT22;22591;48.314;11.562;2023-08-07T14:13:30;20.60;69.20
36586;DHT22;22591;48.314;11.562;2023-08-07T14:15:55;20.50;68.80
36586;DHT22;22591;48.314;11.562;2023-08-07T14:18:21;20.30;67.80
36586;DHT22;22591;48.314;11.562;2023-08-07T14:20:46;20.30;68.80
36586;DHT22;22591;48.314;11.562;2023-08-07T14:23:12;20.50;67.40
36586;DHT22;22591;48.314;11.562;2023-08-07T14:25:37;20.80;65.60
36586;DHT22;22591;48.314;11.562;2023-08-07T14:28:04;21.10;65.80
36586;DHT22;22591;48.314;11.562;2023-08-07T14:30:29;21.20;65.20
36586;DHT22;22591;48.314;11.562;2023-08-07T14:32:55;21.10;66.10
36586;DHT22;22591;48.314;11.562;2023-08-07T14:35:20;20.80;67.50
36586;DHT22;22591;48.314;11.562;2023-08-07T14:37:46;20.50;68.70
36586;DHT22;22591;48.314;11.562;2023-08-07T14:40:13;20.50;69.60
36586;DHT22;22591;48.314;11.562;2023-08-07T14:42:39;20.60;69.60
36586;DHT22;22591;48.314;11.562;2023-08-07T14:45:05;20.40;70.10
36586;DHT22;22591;48.314;11.562;2023-08-07T14:47:31;20.20;71.50
36586;DHT22;22591;48.314;11.562;2023-08-07T14:49:56;19.90;70.90
36586;DHT22;22591;48.314;11.562;2023-08-07T14:52:22;19.70;72.30
36586;DHT22;22591;48.314;11.562;2023-08-07T14:54:47;19.80;72.50
36586;DHT22;22591;48.314;11.562;2023-08-07T14:57:13;19.70;72.80
36586;DHT22;22591;48.314;11.562;2023-08-07T14:59:38;19.70;72.50
36586;DHT22;22591;48.314;11.562;2023-08-07T15:02:05;19.70;72.50
36586;DHT22;22591;48.314;11.562;2023-08-07T15:04:31;19.50;73.30
36586;DHT22;22591;48.314;11.562;2023-08-07T15:06:57;19.40;71.70
36586;DHT22;22591;48.314;11.562;2023-08-07T15:09:22;19.20;72.60
36586;DHT22;22591;48.314;11.562;2023-08-07T15:11:48;19.00;72.50
36586;DHT22;22591;48.314;11.562;2023-08-07T15:14:15;18.90;73.20
36586;DHT22;22591;48.314;11.562;2023-08-07T15:16:40;19.20;74.30
36586;DHT22;22591;48.314;11.562;2023-08-07T15:19:06;19.20;73.60
36586;DHT22;22591;48.314;11.562;2023-08-07T15:21:32;19.40;73.70
36586;DHT22;22591;48.314;11.562;2023-08-07T15:23:57;19.30;73.40
36586;DHT22;22591;48.314;11.562;2023-08-07T15:26:23;19.30;74.00